NCAR-RAP Real-Time Weather Data

Output produced by METARs form (12 August 2020  18:48 UTC)
found at http://weather.rap.ucar.edu/surface/
 
KEAU 121756Z 27008KT 10SM CLR 24/16 A3012 RMK AO2 SLP196 T02440156 10267 20144 50020
KEAU 121656Z 26008KT 10SM CLR 26/14 A3013 RMK AO2 SLP198 T02610139
KEAU 121556Z 15012KT 10SM CLR 27/13 A3008 RMK AO2 SLP182 T02670133
KEAU 121456Z 18009KT 10SM CLR 25/14 A3006 RMK AO2 SLP175 T02500139 55003
KEAU 121356Z 15006KT 10SM CLR 22/14 A3004 RMK AO2 SLP168 T02170139
KEAU 121256Z 00000KT 10SM CLR 20/14 A3007 RMK AO2 SLP177 T02000144
KEAU 121204Z 00000KT 4SM BR CLR 16/14 A3007 RMK AO2 T01560144
KEAU 121202Z 00000KT 1SM BR CLR 16/14 A3007 RMK AO2 T01560144
KEAU 121156Z 00000KT 1/2SM FG VV002 14/13 A3007 RMK AO2 SLP179 T01440133 10183 20133 57001
KEAU 121151Z 00000KT 1SM BR VV002 14/13 A3007 RMK AO2
KEAU 121150Z 00000KT 2SM BR FEW002 13/13 A3007 RMK AO2
KEAU 121141Z 00000KT 2SM BR CLR 14/13 A3007 RMK AO2 VIS 1 1/4V5 T01390133
KEAU 121130Z 00000KT 1/2SM FG CLR 14/13 A3007 RMK AO2 T01390128
KEAU 121123Z 00000KT 1 1/4SM BR FEW002 14/13 A3007 RMK AO2 T01390128
KEAU 121120Z 00000KT 3SM BR FEW002 14/13 A3007 RMK AO2 T01390128
KEAU 121118Z 00000KT 1 1/2SM BR FEW002 14/13 A3007 RMK AO2 T01390133
KEAU 121112Z 05003KT 1/2SM FG VV002 14/13 A3007 RMK AO2 T01390133
KEAU 121100Z 00000KT 1/4SM FG VV001 14/13 A3007 RMK AO2 T01440133
KEAU 121056Z 00000KT 1/2SM FG VV002 14/13 A3007 RMK AO2 SLP179 T01440133
KEAU 121048Z 00000KT 1/4SM FG VV002 14/13 A3007 RMK AO2 T01390133
KEAU 121040Z 06003KT 1/2SM FG VV001 14/13 A3008 RMK AO2 T01440133
KEAU 121035Z 00000KT 1/2SM FG FEW002 FEW120 14/13 A3008 RMK AO2 T01390133
KEAU 121028Z AUTO 00000KT 1/2SM FG FEW120 14/13 A3007 RMK AO2 T01440133 TSNO
KEAU 121018Z AUTO 00000KT 1 1/2SM BR FEW120 15/14 A3007 RMK AO2 T01500139 TSNO
KEAU 120956Z AUTO 00000KT 10SM FEW120 16/14 A3007 RMK AO2 SLP179 T01560139 TSNO
KEAU 120856Z AUTO 00000KT 10SM CLR 15/13 A3006 RMK AO2 SLP175 T01500128 53009
KEAU 120756Z AUTO 00000KT 10SM FEW120 18/15 A3005 RMK AO2 SLP170 T01780150
KEAU 120656Z AUTO 22003KT 10SM FEW120 18/16 A3005 RMK AO2 SLP169 T01780156
KEAU 120556Z AUTO 00000KT 10SM CLR 18/15 A3003 RMK AO2 SLP166 T01780150 10272 20156 403000122 53013
KEAU 120456Z AUTO 00000KT 10SM CLR 17/14 A3001 RMK AO2 SLP159 T01670144
KEAU 120356Z AUTO 00000KT 10SM CLR 18/14 A3000 RMK AO2 SLP153 T01780144
KEAU 120256Z AUTO 00000KT 10SM CLR 18/14 A2999 RMK AO2 SLP153 T01830144 51007
KEAU 120156Z AUTO 00000KT 10SM CLR 22/14 A2999 RMK AO2 SLP153 T02220144
KEAU 120056Z 22004KT 10SM CLR 24/13 A2998 RMK AO2 SLP149 T02440133
KEAU 112356Z 22006KT 10SM CLR 27/13 A2997 RMK AO2 SLP146 T02720128 10300 20272 58002
KEAU 112256Z 23009KT 10SM CLR 29/13 A2998 RMK AO2 SLP147 T02890133
KEAU 112156Z 25007KT 10SM CLR 29/11 A2998 RMK AO2 SLP147 T02940111